Time;durP1;ratioP1;P1;durP2;ratioP2;P2;SDS_P1;SDS_P2;PMS_P1;PMS_P2;Temp;Humidity;BMP_temperature;BMP_pressure;BME280_temperature;BME280_humidity;BME280_pressure;Samples;Min_cycle;Max_cycle;Signal;HPM_P1;HPM_P2
2021/12/07 00:02:24;;;;;;;14.93;8.93;;;;;;;1.48;nan;98238.59;5043863;28;20037;-59
2021/12/07 00:04:49;;;;;;;14.33;8.83;;;;;;;1.49;nan;98242.78;5053859;28;20047;-58
2021/12/07 00:07:17;;;;;;;14.30;9.77;;;;;;;1.48;nan;98236.06;5049692;28;20033;-59
2021/12/07 00:09:45;;;;;;;15.17;9.07;;;;;;;1.47;nan;98228.44;5051016;28;20130;-58
2021/12/07 00:12:12;;;;;;;16.70;9.27;;;;;;;1.40;nan;98226.69;5046888;28;20128;-59
2021/12/07 00:14:40;;;;;;;16.30;9.50;;;;;;;1.32;nan;98224.94;5047692;28;20076;-59
2021/12/07 00:17:07;;;;;;;17.63;10.20;;;;;;;1.28;nan;98228.25;5052893;28;20033;-59
2021/12/07 00:19:33;;;;;;;14.83;9.00;;;;;;;1.31;nan;98233.34;5050072;28;20091;-59
2021/12/07 00:22:00;;;;;;;18.87;9.27;;;;;;;1.35;nan;98222.47;5050912;28;20056;-60
2021/12/07 00:24:25;;;;;;;21.33;12.40;;;;;;;1.32;nan;98224.06;5052641;28;20967;-59
2021/12/07 00:26:51;;;;;;;20.87;12.53;;;;;;;1.34;nan;98230.84;5051663;28;20041;-60
2021/12/07 00:29:16;;;;;;;20.67;12.60;;;;;;;1.36;nan;98220.75;5046897;28;20438;-59
2021/12/07 00:31:51;;;;;;;23.43;11.37;;;;;;;1.37;nan;98222.44;5049210;28;20041;-59
2021/12/07 00:34:37;;;;;;;17.52;10.48;;;;;;;1.43;nan;98220.00;5049622;28;20076;-60
2021/12/07 00:37:03;;;;;;;21.70;10.27;;;;;;;1.45;nan;98214.94;5046538;28;20068;-56
2021/12/07 00:39:29;;;;;;;19.03;10.87;;;;;;;1.52;nan;98217.56;5048924;28;20126;-59
2021/12/07 00:41:55;;;;;;;17.80;9.53;;;;;;;1.53;nan;98214.19;5032703;28;20423;-60
2021/12/07 00:44:23;;;;;;;18.87;10.70;;;;;;;1.50;nan;98209.13;5057123;28;20035;-59
2021/12/07 00:46:49;;;;;;;16.73;9.67;;;;;;;1.54;nan;98210.84;5052208;28;20041;-59
2021/12/07 00:49:16;;;;;;;17.33;9.63;;;;;;;1.49;nan;98209.94;5049572;28;20044;-59
2021/12/07 00:51:41;;;;;;;21.40;11.53;;;;;;;1.47;nan;98214.16;5049012;28;20524;-57
2021/12/07 00:54:07;;;;;;;17.33;10.27;;;;;;;1.31;nan;98210.63;5047958;28;20041;-60
2021/12/07 00:56:33;;;;;;;16.23;10.63;;;;;;;1.26;nan;98202.16;5055050;28;20040;-58
2021/12/07 00:58:58;;;;;;;16.67;10.40;;;;;;;1.23;nan;98208.84;5056550;28;20047;-59
2021/12/07 01:01:24;;;;;;;16.87;9.10;;;;;;;1.15;nan;98211.25;5046566;28;20076;-60
2021/12/07 01:03:50;;;;;;;15.80;9.77;;;;;;;1.10;nan;98212.06;5048599;28;20109;-58
2021/12/07 01:09:01;;;;;;;23.20;10.40;;;;;;;1.01;nan;98214.47;5048243;28;20446;-58
2021/12/07 01:25:39;;;;;;;18.27;11.23;;;;;;;0.72;nan;98183.84;4974941;28;20041;-59
2021/12/07 01:28:20;;;;;;;20.27;11.70;;;;;;;0.61;nan;98177.81;4972764;28;20198;-58
2021/12/07 01:31:36;;;;;;;20.33;11.03;;;;;;;0.56;nan;98184.47;4973177;28;20168;-59
2021/12/07 01:36:44;;;;;;;27.10;13.67;;;;;;;0.44;nan;98193.56;4971699;28;20094;-60
2021/12/07 02:00:45;;;;;;;22.20;13.30;;;;;;;0.34;nan;98191.75;5056806;28;20064;-56
2021/12/07 02:03:11;;;;;;;21.63;12.73;;;;;;;0.24;nan;98189.94;5053828;28;20036;-58
2021/12/07 02:05:36;;;;;;;23.93;14.00;;;;;;;0.18;nan;98188.97;5029268;28;20637;-59
2021/12/07 02:08:03;;;;;;;23.27;14.70;;;;;;;0.03;nan;98184.56;5048696;28;20041;-58
2021/12/07 02:10:31;;;;;;;23.83;13.63;;;;;;;0.13;nan;98190.59;5049253;28;20064;-58
2021/12/07 02:13:03;;;;;;;21.40;12.23;;;;;;;0.11;nan;98189.72;5048960;28;20029;-58
2021/12/07 02:15:30;;;;;;;22.63;12.13;;;;;;;0.01;nan;98183.69;5049508;28;20038;-58
2021/12/07 02:17:55;;;;;;;28.53;13.87;;;;;;;0.20;nan;98177.25;5051410;28;20458;-59
2021/12/07 02:20:25;;;;;;;24.70;15.00;;;;;;;0.21;nan;98179.78;5043423;28;20079;-56
2021/12/07 02:22:51;;;;;;;25.97;15.73;;;;;;;0.12;nan;98178.81;5052476;28;20052;-58
2021/12/07 02:25:18;;;;;;;23.37;14.17;;;;;;;0.16;nan;98178.03;5049020;28;20041;-59
2021/12/07 02:27:45;;;;;;;27.80;16.57;;;;;;;0.18;nan;98182.28;5048675;28;20090;-59
2021/12/07 02:30:13;;;;;;;24.33;14.80;;;;;;;0.31;nan;98173.22;5052947;28;20037;-58
2021/12/07 02:32:38;;;;;;;28.53;15.47;;;;;;;0.34;nan;98166.53;5052332;28;20075;-58
2021/12/07 02:35:05;;;;;;;27.70;14.83;;;;;;;0.35;nan;98167.38;5040780;28;20083;-60
2021/12/07 02:37:33;;;;;;;25.77;13.70;;;;;;;0.37;nan;98168.25;5051940;28;20431;-60
2021/12/07 02:39:59;;;;;;;24.53;14.10;;;;;;;0.36;nan;98161.50;5060473;28;20424;-57
2021/12/07 02:42:26;;;;;;;24.93;14.53;;;;;;;0.37;nan;98169.13;5056551;28;20040;-60
2021/12/07 02:44:52;;;;;;;26.13;14.97;;;;;;;0.36;nan;98161.50;5059785;28;20082;-60
2021/12/07 02:47:18;;;;;;;24.27;13.90;;;;;;;0.40;nan;98163.25;5052273;28;20425;-59
2021/12/07 02:49:44;;;;;;;22.33;14.03;;;;;;;0.42;nan;98154.88;5052503;28;20041;-58
2021/12/07 02:52:11;;;;;;;24.50;13.30;;;;;;;0.42;nan;98154.88;5049493;28;20047;-58
2021/12/07 02:54:43;;;;;;;23.80;15.23;;;;;;;0.42;nan;98159.09;5050664;28;20144;-59
2021/12/07 02:57:11;;;;;;;24.17;14.77;;;;;;;0.36;nan;98164.88;5036111;28;20597;-56
2021/12/07 02:59:42;;;;;;;23.20;13.10;;;;;;;0.34;nan;98158.16;5056984;28;20659;-57
2021/12/07 03:02:09;;;;;;;26.20;14.63;;;;;;;0.25;nan;98163.06;5049181;28;20483;-58
2021/12/07 03:04:42;;;;;;;25.63;15.07;;;;;;;0.21;nan;98166.38;5056225;28;20061;-58
2021/12/07 03:07:27;;;;;;;24.43;13.50;;;;;;;0.12;nan;98156.16;5060160;28;20037;-58
2021/12/07 03:25:50;;;;;;;24.73;14.40;;;;;;;0.08;nan;98165.34;5052038;28;20068;-58
2021/12/07 03:26:25;;;;;;;27.10;15.10;;;;;;;-0.30;nan;98162.25;5060427;28;20071;-58
2021/12/07 03:28:53;;;;;;;22.50;12.70;;;;;;;-0.22;nan;98165.72;5059290;28;20043;-60
2021/12/07 03:31:20;;;;;;;24.07;14.57;;;;;;;-0.30;nan;98162.25;5059412;28;20063;-55
2021/12/07 03:33:45;;;;;;;25.17;14.13;;;;;;;-0.32;nan;98160.50;5061403;28;20139;-56
2021/12/07 03:36:13;;;;;;;23.10;14.73;;;;;;;-0.39;nan;98154.53;5054121;28;20124;-55
2021/12/07 03:38:39;;;;;;;23.60;13.43;;;;;;;-0.41;nan;98158.69;5048846;28;20041;-59
2021/12/07 03:41:05;;;;;;;27.10;13.73;;;;;;;-0.43;nan;98155.31;5050080;28;20073;-58
2021/12/07 03:43:32;;;;;;;25.07;14.20;;;;;;;-0.43;nan;98167.91;5048133;28;20474;-60
2021/12/07 03:45:58;;;;;;;25.97;13.37;;;;;;;-0.44;nan;98171.22;5048006;28;20086;-60
2021/12/07 03:48:24;;;;;;;23.57;13.37;;;;;;;-0.56;nan;98173.53;5020108;28;20445;-58
2021/12/07 03:50:49;;;;;;;22.70;12.83;;;;;;;-0.64;nan;98180.13;5044449;28;20036;-58
2021/12/07 03:53:15;;;;;;;21.47;12.60;;;;;;;-0.78;nan;98167.28;5052690;28;20490;-59
2021/12/07 03:55:40;;;;;;;22.57;12.43;;;;;;;-0.78;nan;98179.00;5048405;28;20723;-57
2021/12/07 03:58:06;;;;;;;21.83;12.50;;;;;;;-0.81;nan;98177.31;5046513;28;20784;-58
2021/12/07 04:00:36;;;;;;;25.47;13.00;;;;;;;-0.83;nan;98178.06;5049050;28;20033;-59
2021/12/07 04:03:07;;;;;;;23.80;13.67;;;;;;;-0.88;nan;98178.00;5056770;28;20650;-58
2021/12/07 04:05:33;;;;;;;23.20;13.43;;;;;;;-0.90;nan;98189.72;5055797;28;20040;-58
2021/12/07 04:07:59;;;;;;;33.47;16.17;;;;;;;-0.93;nan;98190.47;5050779;28;20559;-58
2021/12/07 04:10:25;;;;;;;24.77;13.80;;;;;;;-0.95;nan;98192.13;5049244;28;20048;-58
2021/12/07 04:12:52;;;;;;;22.47;13.37;;;;;;;-0.97;nan;98188.72;5053842;28;20037;-58
2021/12/07 04:15:18;;;;;;;25.57;14.20;;;;;;;-1.00;nan;98191.19;5054958;28;20033;-58
2021/12/07 04:17:44;;;;;;;27.27;12.90;;;;;;;-1.03;nan;98186.09;5047589;28;20052;-58
2021/12/07 04:20:12;;;;;;;24.63;12.53;;;;;;;-0.94;nan;98196.34;5054854;28;20025;-58
2021/12/07 04:22:38;;;;;;;27.40;12.93;;;;;;;-0.94;nan;98195.50;5054157;28;20033;-59
2021/12/07 04:25:08;;;;;;;26.47;14.70;;;;;;;-0.92;nan;98197.22;5046403;28;20223;-58
2021/12/07 04:27:38;;;;;;;19.77;12.10;;;;;;;-0.92;nan;98194.69;5047921;28;20059;-59
2021/12/07 04:30:13;;;;;;;23.97;13.10;;;;;;;-0.89;nan;98190.56;5049889;28;20033;-58
2021/12/07 04:32:39;;;;;;;21.35;12.73;;;;;;;-0.92;nan;98182.13;5050444;28;20043;-59
2021/12/07 04:35:06;;;;;;;21.80;12.30;;;;;;;-0.89;nan;98180.50;5053009;28;20057;-56
2021/12/07 04:37:31;;;;;;;27.83;13.90;;;;;;;-0.95;nan;98184.59;5043665;28;20064;-59
2021/12/07 04:39:57;;;;;;;25.60;12.77;;;;;;;-1.03;nan;98183.59;5055006;28;20052;-59
2021/12/07 04:42:24;;;;;;;27.83;13.47;;;;;;;-1.08;nan;98181.81;5050101;28;20048;-58
2021/12/07 04:44:53;;;;;;;21.43;12.70;;;;;;;-1.13;nan;98176.69;5056548;28;20485;-58
2021/12/07 04:47:28;;;;;;;23.03;12.40;;;;;;;-1.18;nan;98183.28;5049105;28;20041;-58
2021/12/07 04:57:59;;;;;;;23.90;12.50;;;;;;;-1.48;nan;98183.50;5049548;28;20414;-60
2021/12/07 05:00:27;;;;;;;24.10;12.40;;;;;;;-1.46;nan;98181.03;5055642;28;20037;-60
2021/12/07 05:03:00;;;;;;;22.13;13.40;;;;;;;-1.51;nan;98185.09;5050736;28;20037;-56
2021/12/07 05:05:32;;;;;;;25.03;13.23;;;;;;;-1.51;nan;98180.09;5055053;28;20056;-59
2021/12/07 05:08:01;;;;;;;38.40;16.70;;;;;;;-1.41;nan;98176.97;5038646;28;20390;-58
2021/12/07 05:10:31;;;;;;;31.03;16.00;;;;;;;-1.45;nan;98177.72;5052826;28;20511;-58
2021/12/07 05:18:35;;;;;;;39.77;21.13;;;;;;;-1.42;nan;98185.31;5049054;28;20049;-57
2021/12/07 05:40:13;;;;;;;40.90;21.30;;;;;;;-0.83;nan;98185.63;5046549;28;20172;-58
2021/12/07 05:42:41;;;;;;;40.40;20.87;;;;;;;-0.76;nan;98187.41;5046479;28;20094;-57
2021/12/07 05:45:10;;;;;;;35.70;18.47;;;;;;;-0.67;nan;98193.47;5046803;28;20040;-59
2021/12/07 05:47:36;;;;;;;40.37;21.23;;;;;;;-0.57;nan;98195.34;5048797;28;20056;-59
2021/12/07 05:50:03;;;;;;;37.40;19.93;;;;;;;-0.53;nan;98197.09;5047164;28;20130;-60
2021/12/07 05:52:29;;;;;;;38.17;19.43;;;;;;;-0.47;nan;98197.19;5025054;28;20440;-56
2021/12/07 05:54:54;;;;;;;42.43;20.70;;;;;;;-0.41;nan;98195.59;5046383;28;20053;-57
2021/12/07 05:57:21;;;;;;;42.30;20.63;;;;;;;-0.51;nan;98205.50;5050253;28;20037;-53
2021/12/07 05:59:46;;;;;;;36.93;17.83;;;;;;;-0.47;nan;98198.88;5048104;28;20044;-56
2021/12/07 06:02:12;;;;;;;32.00;17.57;;;;;;;-0.40;nan;98197.28;5041981;28;20520;-57
2021/12/07 06:04:37;;;;;;;41.93;19.90;;;;;;;-0.30;nan;98199.16;5048180;28;20049;-59
2021/12/07 06:07:04;;;;;;;35.07;18.60;;;;;;;-0.37;nan;98198.19;5048813;28;20497;-57
2021/12/07 06:09:30;;;;;;;34.20;19.83;;;;;;;-0.40;nan;98204.84;5052848;28;20343;-59
2021/12/07 06:11:55;;;;;;;37.33;21.17;;;;;;;-0.44;nan;98206.47;5047001;28;20047;-58
2021/12/07 06:14:28;;;;;;;34.67;19.73;;;;;;;-0.38;nan;98209.06;5048994;28;20052;-57
2021/12/07 06:16:54;;;;;;;33.03;17.90;;;;;;;-0.30;nan;98194.97;5054341;28;20095;-58
2021/12/07 06:19:20;;;;;;;30.00;17.27;;;;;;;-0.41;nan;98191.41;5031650;28;20048;-56
2021/12/07 06:21:45;;;;;;;31.17;15.43;;;;;;;-0.42;nan;98198.97;5042636;28;20404;-58
2021/12/07 06:24:10;;;;;;;32.20;17.83;;;;;;;-0.37;nan;98195.69;5046949;28;20124;-58
2021/12/07 06:26:36;;;;;;;38.33;18.90;;;;;;;-0.31;nan;98199.97;5045225;28;20091;-59
2021/12/07 06:29:02;;;;;;;36.40;18.57;;;;;;;-0.27;nan;98195.00;5046081;28;20139;-59
2021/12/07 06:31:28;;;;;;;37.47;19.03;;;;;;;-0.21;nan;98185.03;5043691;28;20048;-60
2021/12/07 06:33:53;;;;;;;32.20;17.57;;;;;;;-0.13;nan;98182.66;5046068;28;20036;-58
2021/12/07 06:36:19;;;;;;;31.20;17.77;;;;;;;-0.08;nan;98196.13;5044438;28;20049;-59
2021/12/07 06:38:47;;;;;;;33.50;16.90;;;;;;;-0.12;nan;98197.78;5048571;28;20072;-57
2021/12/07 06:41:13;;;;;;;44.93;21.00;;;;;;;-0.06;nan;98199.53;5042128;28;20045;-59
2021/12/07 06:43:40;;;;;;;38.10;20.33;;;;;;;0.04;nan;98195.50;5046160;28;20044;-60
2021/12/07 06:46:05;;;;;;;39.37;19.93;;;;;;;0.08;nan;98199.75;5045702;28;20094;-59
2021/12/07 06:48:31;;;;;;;33.33;18.37;;;;;;;0.19;nan;98200.75;5043544;28;20390;-59
2021/12/07 06:50:57;;;;;;;35.43;17.97;;;;;;;0.29;nan;98197.56;5043851;28;20056;-60
2021/12/07 06:53:22;;;;;;;40.87;20.17;;;;;;;0.34;nan;98201.81;5047203;28;20032;-60
2021/12/07 06:55:48;;;;;;;33.23;18.57;;;;;;;0.33;nan;98204.34;5046738;28;20052;-59
2021/12/07 06:58:13;;;;;;;30.30;17.40;;;;;;;0.36;nan;98205.22;5026371;28;20096;-59
2021/12/07 07:00:39;;;;;;;33.87;16.90;;;;;;;0.50;nan;98199.53;5044235;28;20028;-58
2021/12/07 07:03:05;;;;;;;35.40;19.17;;;;;;;0.64;nan;98219.03;5046677;28;20033;-59
2021/12/07 07:05:31;;;;;;;36.07;19.37;;;;;;;0.68;nan;98218.25;5047202;28;20120;-60
2021/12/07 07:07:57;;;;;;;36.50;18.00;;;;;;;0.67;nan;98209.03;5044843;28;20450;-57
2021/12/07 07:10:23;;;;;;;31.20;18.17;;;;;;;0.71;nan;98218.31;5045237;28;20033;-62
2021/12/07 07:12:48;;;;;;;36.27;18.60;;;;;;;0.73;nan;98218.31;5046236;28;20126;-58
2021/12/07 07:15:15;;;;;;;38.17;19.80;;;;;;;0.79;nan;98213.38;5045561;28;20037;-61
2021/12/07 07:17:40;;;;;;;38.33;19.27;;;;;;;0.80;nan;98212.53;5042948;28;20029;-57
2021/12/07 07:20:09;;;;;;;31.40;16.17;;;;;;;0.88;nan;98213.47;5045704;28;20040;-59
2021/12/07 07:22:34;;;;;;;29.70;17.33;;;;;;;1.00;nan;98215.31;5044575;28;20125;-61
2021/12/07 07:25:00;;;;;;;37.27;19.13;;;;;;;1.14;nan;98219.69;5048288;28;20036;-60
2021/12/07 07:27:26;;;;;;;30.43;17.27;;;;;;;1.27;nan;98223.19;5047670;28;20090;-61
2021/12/07 07:29:51;;;;;;;33.37;17.77;;;;;;;1.35;nan;98222.47;5043889;28;20317;-61
2021/12/07 07:32:17;;;;;;;32.93;18.27;;;;;;;1.43;nan;98232.63;5049499;28;20094;-60
2021/12/07 07:34:43;;;;;;;30.43;17.07;;;;;;;1.41;nan;98228.38;5049557;28;20049;-61
2021/12/07 07:37:09;;;;;;;36.37;18.83;;;;;;;1.41;nan;98226.69;5044661;28;20056;-62
2021/12/07 07:39:34;;;;;;;34.20;18.60;;;;;;;1.23;nan;98229.06;5048335;28;20030;-58
2021/12/07 07:42:00;;;;;;;32.70;17.80;;;;;;;1.24;nan;98230.72;5047196;28;20044;-57
2021/12/07 07:44:26;;;;;;;30.17;17.60;;;;;;;1.32;nan;98237.56;5049621;28;20532;-57
2021/12/07 07:46:51;;;;;;;36.47;17.80;;;;;;;1.46;nan;98231.81;5048154;28;20060;-60
2021/12/07 07:49:16;;;;;;;35.83;17.50;;;;;;;1.53;nan;98238.63;5045642;28;20067;-61
2021/12/07 07:51:42;;;;;;;34.13;19.03;;;;;;;1.65;nan;98246.34;5049941;28;20143;-62
2021/12/07 07:54:08;;;;;;;36.60;18.57;;;;;;;1.65;nan;98241.28;5047821;28;20093;-63
2021/12/07 07:56:34;;;;;;;31.97;18.60;;;;;;;1.90;nan;98235.63;5046389;28;20046;-63
2021/12/07 07:59:00;;;;;;;32.67;16.43;;;;;;;1.84;nan;98235.53;5045536;28;20572;-64
2021/12/07 08:01:31;;;;;;;31.90;16.73;;;;;;;2.04;nan;98238.22;5049142;28;20086;-61
2021/12/07 08:03:58;;;;;;;31.93;18.67;;;;;;;2.07;nan;98228.16;5047586;28;20063;-61
2021/12/07 08:06:24;;;;;;;30.10;16.30;;;;;;;2.27;nan;98235.06;5045490;28;20481;-61
2021/12/07 08:08:50;;;;;;;29.27;16.63;;;;;;;2.42;nan;98241.09;5047968;28;20044;-61
2021/12/07 08:11:15;;;;;;;29.17;15.67;;;;;;;2.44;nan;98234.34;5050192;28;20037;-64
2021/12/07 08:13:41;;;;;;;29.80;16.20;;;;;;;2.58;nan;98236.13;5044134;28;20040;-62
2021/12/07 08:16:15;;;;;;;24.93;15.10;;;;;;;2.72;nan;98231.97;5046318;28;20042;-61
2021/12/07 08:18:42;;;;;;;27.83;15.03;;;;;;;2.96;nan;98235.47;5048135;28;20072;-62
2021/12/07 08:21:08;;;;;;;27.10;14.30;;;;;;;2.84;nan;98230.34;5053267;28;20076;-62
2021/12/07 08:23:35;;;;;;;24.70;15.90;;;;;;;2.97;nan;98232.13;5046749;28;20428;-62
2021/12/07 08:26:02;;;;;;;25.33;15.17;;;;;;;2.91;nan;98232.91;5047495;28;20033;-62
2021/12/07 08:28:27;;;;;;;26.17;15.27;;;;;;;2.94;nan;98235.47;5050189;28;20040;-62
2021/12/07 08:30:52;;;;;;;24.70;15.37;;;;;;;2.94;nan;98243.06;5051149;28;20041;-63
2021/12/07 08:33:19;;;;;;;23.17;13.70;;;;;;;3.07;nan;98233.81;5045594;28;20044;-62
2021/12/07 08:35:44;;;;;;;23.67;13.70;;;;;;;3.05;nan;98235.53;5046738;28;20033;-62
2021/12/07 08:38:10;;;;;;;24.47;14.47;;;;;;;3.20;nan;98240.63;5048924;28;20111;-61
2021/12/07 08:40:39;;;;;;;25.07;14.97;;;;;;;3.28;nan;98240.66;5043780;28;20036;-61
2021/12/07 08:43:06;;;;;;;28.50;16.13;;;;;;;3.24;nan;98242.34;5046600;28;20045;-62
2021/12/07 08:45:31;;;;;;;23.30;12.57;;;;;;;3.02;nan;98243.94;5049499;28;20036;-62
2021/12/07 08:47:58;;;;;;;21.43;12.80;;;;;;;3.11;nan;98246.50;5047414;28;20044;-62
2021/12/07 08:50:26;;;;;;;25.80;13.43;;;;;;;3.10;nan;98246.50;5046363;28;20128;-63
2021/12/07 08:52:54;;;;;;;20.83;11.23;;;;;;;3.08;nan;98241.44;5049652;28;20125;-62
2021/12/07 09:00:52;;;;;;;21.10;11.30;;;;;;;3.17;nan;98250.75;5050089;28;20094;-62
2021/12/07 09:03:19;;;;;;;17.60;10.43;;;;;;;3.17;nan;98251.63;5048718;28;20524;-62
2021/12/07 09:05:44;;;;;;;24.07;11.13;;;;;;;3.29;nan;98239.81;5047197;28;20054;-62
2021/12/07 09:08:10;;;;;;;23.43;12.33;;;;;;;3.50;nan;98235.66;5047019;28;20051;-63
2021/12/07 09:10:36;;;;;;;24.87;13.03;;;;;;;3.37;nan;98233.09;5048307;28;20043;-63
2021/12/07 09:13:02;;;;;;;31.90;17.17;;;;;;;3.54;nan;98232.28;5032345;28;20123;-63
2021/12/07 09:15:28;;;;;;;27.10;15.77;;;;;;;3.46;nan;98217.91;5045202;28;20040;-63
2021/12/07 09:17:53;;;;;;;26.10;14.03;;;;;;;3.52;nan;98233.16;5045013;28;20107;-62
2021/12/07 09:20:20;;;;;;;26.53;14.73;;;;;;;3.56;nan;98243.31;5048810;28;20128;-62
2021/12/07 09:22:47;;;;;;;28.63;13.63;;;;;;;3.44;nan;98240.72;5048819;28;20045;-62
2021/12/07 09:25:14;;;;;;;30.20;16.93;;;;;;;3.39;nan;98239.03;5044445;28;20036;-63
2021/12/07 09:27:40;;;;;;;37.60;19.83;;;;;;;3.36;nan;98239.00;5044022;28;20041;-62
2021/12/07 09:30:08;;;;;;;27.30;15.57;;;;;;;3.44;nan;98229.72;5044805;28;20884;-62
2021/12/07 09:32:33;;;;;;;25.93;13.53;;;;;;;3.34;nan;98230.56;5050112;28;20040;-62
2021/12/07 09:34:59;;;;;;;28.73;15.60;;;;;;;3.40;nan;98226.34;5044159;28;20105;-62
2021/12/07 09:37:24;;;;;;;23.47;13.60;;;;;;;3.48;nan;98234.81;5044896;28;20751;-62
2021/12/07 09:39:50;;;;;;;25.83;12.83;;;;;;;3.68;nan;98240.78;5048124;28;20041;-62
2021/12/07 09:42:16;;;;;;;22.53;12.97;;;;;;;3.80;nan;98229.81;5048614;28;20041;-62
2021/12/07 09:44:41;;;;;;;26.70;14.13;;;;;;;3.73;nan;98232.34;5043968;28;20071;-67
2021/12/07 09:47:07;;;;;;;24.03;14.47;;;;;;;3.67;nan;98234.03;5046867;28;20383;-61
2021/12/07 09:49:32;;;;;;;21.47;12.90;;;;;;;3.62;nan;98233.16;5050040;28;20041;-63
2021/12/07 09:51:58;;;;;;;24.53;13.67;;;;;;;3.87;nan;98225.56;5050220;28;20047;-62
2021/12/07 09:54:23;;;;;;;23.63;12.73;;;;;;;4.06;nan;98227.28;5044037;28;20187;-62
2021/12/07 09:56:49;;;;;;;22.27;12.87;;;;;;;4.02;nan;98229.00;5047575;28;20044;-61
2021/12/07 09:59:15;;;;;;;21.47;12.03;;;;;;;3.85;nan;98230.66;5048491;28;20028;-61
2021/12/07 10:01:41;;;;;;;19.07;11.33;;;;;;;3.96;nan;98230.66;5055185;28;20033;-60
2021/12/07 10:04:08;;;;;;;17.87;10.93;;;;;;;3.79;nan;98228.13;5042470;28;20082;-60
2021/12/07 10:06:34;;;;;;;19.00;10.43;;;;;;;3.52;nan;98233.97;5043540;28;20643;-59
2021/12/07 10:09:00;;;;;;;18.27;8.67;;;;;;;3.27;nan;98234.75;5048239;28;20623;-58
2021/12/07 10:11:26;;;;;;;20.03;10.27;;;;;;;3.25;nan;98233.91;5045431;28;20150;-58
2021/12/07 10:13:52;;;;;;;20.60;10.57;;;;;;;3.51;nan;98233.97;5044120;28;20072;-55
2021/12/07 10:16:20;;;;;;;16.93;9.23;;;;;;;3.40;nan;98226.34;5047413;28;20489;-55
2021/12/07 10:18:46;;;;;;;16.27;9.13;;;;;;;3.25;nan;98245.72;5044743;28;20394;-53
2021/12/07 10:21:29;;;;;;;15.10;9.20;;;;;;;3.34;nan;98233.09;5041087;28;20051;-55
2021/12/07 10:24:00;;;;;;;15.77;9.30;;;;;;;3.37;nan;98233.94;5043996;28;20037;-56
2021/12/07 10:26:32;;;;;;;15.37;9.23;;;;;;;3.22;nan;98241.50;5049449;28;20115;-52
2021/12/07 10:29:11;;;;;;;14.57;9.07;;;;;;;3.22;nan;98244.03;5047340;28;20541;-53
2021/12/07 10:31:44;;;;;;;20.17;10.67;;;;;;;3.21;nan;98245.72;5043647;28;20037;-51
2021/12/07 10:34:30;;;;;;;16.30;9.57;;;;;;;3.30;nan;98242.38;5046614;28;20037;-53
2021/12/07 10:37:07;;;;;;;14.80;9.27;;;;;;;3.36;nan;98236.47;5047910;28;20655;-54
2021/12/07 10:39:37;;;;;;;20.63;9.37;;;;;;;3.36;nan;98227.16;5044830;28;20033;-54
2021/12/07 10:42:11;;;;;;;16.17;9.00;;;;;;;3.37;nan;98233.94;5043696;28;20037;-54
2021/12/07 10:44:40;;;;;;;16.17;9.05;;;;;;;3.31;nan;98230.56;5045489;28;20042;-56
2021/12/07 10:47:08;;;;;;;18.07;8.33;;;;;;;3.22;nan;98239.78;5047146;28;20045;-54
2021/12/07 10:50:00;;;;;;;14.20;8.13;;;;;;;3.27;nan;98223.78;5043382;28;20203;-52
2021/12/07 10:52:33;;;;;;;25.40;12.97;;;;;;;3.40;nan;98228.03;5050932;28;20064;-56
2021/12/07 10:55:20;;;;;;;21.63;12.73;;;;;;;3.53;nan;98232.28;5048201;28;20047;-55
2021/12/07 10:58:00;;;;;;;17.07;9.87;;;;;;;3.60;nan;98239.94;5045429;28;20093;-55
2021/12/07 11:00:36;;;;;;;14.47;9.10;;;;;;;3.48;nan;98233.97;5054981;28;20650;-52
2021/12/07 11:03:10;;;;;;;20.13;11.57;;;;;;;3.65;nan;98240.75;5057087;28;20045;-54
2021/12/07 11:05:45;;;;;;;20.55;9.07;;;;;;;3.83;nan;98229.81;5051546;28;20437;-53
2021/12/07 11:08:12;;;;;;;18.33;8.30;;;;;;;3.71;nan;98234.00;5051099;28;20693;-55
2021/12/07 11:10:46;;;;;;;18.13;8.57;;;;;;;3.54;nan;98233.97;5050144;28;20037;-53
2021/12/07 11:13:18;;;;;;;17.13;10.13;;;;;;;3.64;nan;98234.03;5049277;28;20391;-56
2021/12/07 11:15:53;;;;;;;16.77;9.03;;;;;;;3.72;nan;98236.56;5047318;28;20040;-52
2021/12/07 11:18:48;;;;;;;16.88;9.93;;;;;;;3.70;nan;98238.22;5053007;28;20068;-54
2021/12/07 11:21:17;;;;;;;16.80;9.67;;;;;;;3.69;nan;98228.97;5049735;28;20090;-52
2021/12/07 11:23:49;;;;;;;18.40;9.63;;;;;;;3.55;nan;98212.88;5049006;28;20280;-52
2021/12/07 11:31:33;;;;;;;18.57;9.93;;;;;;;3.90;nan;98216.31;5054452;28;20156;-52
2021/12/07 11:34:04;;;;;;;14.40;10.17;;;;;;;3.84;nan;98228.97;5051062;28;20036;-51
2021/12/07 11:36:35;;;;;;;17.73;10.57;;;;;;;3.65;nan;98225.56;5049099;28;20346;-54
2021/12/07 11:39:32;;;;;;;15.47;8.60;;;;;;;3.65;nan;98228.09;5049197;28;20040;-51
2021/12/07 11:42:07;;;;;;;14.77;9.27;;;;;;;3.72;nan;98221.34;5049651;28;20043;-55
2021/12/07 11:44:35;;;;;;;13.00;7.50;;;;;;;3.65;nan;98224.69;5049774;28;20060;-54
2021/12/07 11:47:03;;;;;;;10.17;7.00;;;;;;;3.51;nan;98217.09;5051361;28;20053;-54
2021/12/07 11:49:32;;;;;;;10.60;6.53;;;;;;;3.53;nan;98215.41;5053190;28;20036;-56
2021/12/07 11:52:00;;;;;;;11.80;6.70;;;;;;;3.44;nan;98211.97;5051964;28;20067;-51
2021/12/07 11:54:29;;;;;;;10.47;6.70;;;;;;;3.61;nan;98215.41;5049911;28;20036;-54
2021/12/07 11:56:55;;;;;;;9.97;7.43;;;;;;;3.60;nan;98221.34;5051281;28;20098;-51
2021/12/07 11:59:21;;;;;;;7.37;4.90;;;;;;;3.36;nan;98208.59;5056736;28;20111;-53
2021/12/07 12:01:48;;;;;;;9.07;4.33;;;;;;;3.42;nan;98218.75;5059291;28;20124;-53
2021/12/07 12:04:16;;;;;;;3.73;3.23;;;;;;;3.30;nan;98226.31;5038226;28;20081;-54
2021/12/07 12:06:43;;;;;;;7.50;4.37;;;;;;;3.42;nan;98218.75;5052376;28;20041;-53
2021/12/07 12:09:10;;;;;;;8.80;4.13;;;;;;;3.50;nan;98212.00;5050693;28;20040;-54
2021/12/07 12:12:00;;;;;;;3.20;2.67;;;;;;;3.59;nan;98230.63;5047943;28;20037;-57
2021/12/07 12:14:43;;;;;;;4.93;2.50;;;;;;;3.58;nan;98217.94;5051599;28;20033;-53
2021/12/07 12:17:18;;;;;;;3.97;2.37;;;;;;;3.57;nan;98218.78;5054317;28;20085;-55
2021/12/07 12:20:08;;;;;;;3.75;2.75;;;;;;;3.62;nan;98219.63;5054896;28;20067;-56
2021/12/07 12:22:40;;;;;;;2.63;2.23;;;;;;;3.65;nan;98212.03;5047946;28;20048;-52
2021/12/07 12:25:11;;;;;;;4.83;1.90;;;;;;;3.69;nan;98211.22;5050704;28;20791;-56
2021/12/07 12:27:37;;;;;;;2.60;1.80;;;;;;;3.69;nan;98204.44;5053163;28;20056;-57
2021/12/07 12:30:30;;;;;;;2.90;2.03;;;;;;;4.00;nan;98200.22;5067543;28;20066;-57
2021/12/07 12:32:59;;;;;;;1.60;1.50;;;;;;;3.94;nan;98204.47;5046098;28;20103;-53
2021/12/07 12:35:38;;;;;;;1.43;1.33;;;;;;;3.92;nan;98201.94;5052618;28;20095;-54
2021/12/07 12:38:21;;;;;;;2.37;1.70;;;;;;;3.99;nan;98198.53;5052232;28;20435;-57
2021/12/07 12:40:56;;;;;;;2.83;2.17;;;;;;;4.11;nan;98202.78;5048358;28;20077;-53
2021/12/07 12:44:00;;;;;;;2.58;1.80;;;;;;;3.92;nan;98193.47;5046423;28;20067;-53
2021/12/07 12:46:30;;;;;;;2.70;2.07;;;;;;;3.89;nan;98190.94;5041659;28;20454;-54
2021/12/07 12:49:02;;;;;;;2.80;1.80;;;;;;;3.78;nan;98185.84;5049916;28;20414;-55
2021/12/07 12:51:42;;;;;;;2.50;2.10;;;;;;;3.80;nan;98204.47;5045294;28;20547;-58
2021/12/07 12:54:09;;;;;;;1.90;1.63;;;;;;;3.66;nan;98195.97;5044394;28;20449;-55
2021/12/07 12:56:36;;;;;;;3.17;2.10;;;;;;;3.73;nan;98197.69;5047830;28;20037;-52
2021/12/07 12:59:04;;;;;;;1.77;1.60;;;;;;;3.75;nan;98201.06;5049078;28;20044;-54
2021/12/07 13:01:38;;;;;;;3.90;2.73;;;;;;;3.61;nan;98190.06;5030918;28;20490;-56
2021/12/07 13:04:12;;;;;;;3.37;2.27;;;;;;;3.51;nan;98196.81;5047831;28;20048;-52
2021/12/07 13:06:50;;;;;;;2.80;2.30;;;;;;;3.42;nan;98191.72;5052467;28;20045;-52
2021/12/07 13:09:19;;;;;;;2.27;2.17;;;;;;;3.42;nan;98191.72;5046928;28;20090;-55
2021/12/07 13:11:47;;;;;;;2.90;2.30;;;;;;;3.40;nan;98193.41;5048444;28;20041;-53
2021/12/07 13:14:29;;;;;;;2.90;2.00;;;;;;;3.32;nan;98184.09;5052214;28;20040;-54
2021/12/07 13:17:04;;;;;;;3.00;2.40;;;;;;;3.28;nan;98190.84;5044129;28;20198;-56
2021/12/07 13:19:30;;;;;;;2.63;2.03;;;;;;;3.31;nan;98203.50;5048459;28;20041;-59
2021/12/07 13:22:01;;;;;;;2.17;1.97;;;;;;;3.28;nan;98216.19;5051076;28;20368;-52
2021/12/07 13:24:38;;;;;;;2.10;1.67;;;;;;;3.27;nan;98199.28;5037692;28;20034;-58
2021/12/07 13:27:10;;;;;;;2.20;1.93;;;;;;;3.34;nan;98207.75;5054097;28;20745;-56
2021/12/07 13:29:43;;;;;;;3.90;2.27;;;;;;;3.41;nan;98201.84;5047598;28;20080;-59
2021/12/07 13:32:09;;;;;;;1.97;1.77;;;;;;;3.30;nan;98196.78;5053966;28;20041;-58